Terminal Aerodrome Forecast
Issued by NWS Wilmington, OH

Current Version | Previous Version | Graphics & Text | Print | Product List | Glossary On
Versions: 1 2 3 4 5 6 7 8 9 10 11 12 13
221
FTUS41 KILN 221725
TAFDAY
TAF
KDAY 221725Z 2218/2318 35014KT P6SM SCT070
     FM230100 01004KT P6SM SKC
     FM231700 01005KT P6SM FEW040=

USA.gov is the U.S. government's official web portal to all federal, state and local government web resources and services.